Current Conditions
Mostly Clear
Conditions



Pressure
1013.88 (hPa) - 29.94 (inHG)
Visibility

9.7 (km) - 6.0 (miles)
Temperature
21  °C
Temperature
8  °C
Dewpoint
43  %
 Humidity
Wind Speed
29  km/h
16  kts
18  mph
8.0  m/s
Wind Direction
N
45°
E
90°
135°
S
180°
225°
W
270°
315°
 270°

Due West
Airport Data
LELN
León Airport
Metar :LELN 141530Z 27016G26KT 210V310 CAVOK 21/08 Q1014
Fri 14th June 17:30 pm
Raw Metar Info
Raw METAR is the most common format in the world for the transmission of observational weather data. It is highly standardized through the International Civil Aviation Organization (ICAO), which allows it to be understood throughout most of the world.
API Info
Data Provided by
https://www.checkwx.com/weather/LELN

Aviation Weather providing METAR, TAF, AIRMET, SIGMET and OUTLOOK Weather Reports
© Info
CSS/SVG/PHP scripts were developed by weather34 for use in the weather34 template © 2015-2024

Guide Info provided by Metar-Wikipedia